• Join FlightAware (Why Join?)
  • Login
  • US Flag 
07:54PM EDT


 

Airport Tracker/Info


-or-


 

Live Flight TrackerFlight Track Log ✈ EJA102 ✈ 14-Jun-2013 ✈ KIPT - KIAD

Flight Track Log - Related Links

Times and Time Zones

All times are in EDT time to prevent confusion due to time zone crossing. See the EJA102 flight status page for this flight to view local times or setup timezone preferences in your user account.

Time Position Orientation Groundspeed Altitude Reporting Facility
EDT Latitude Longitude Course Direction KTS MPH feet Rate Location/Type
01:28PM 40.3936 -77.1836 183° South 410 472 13,000  Level New York Center
01:29PM 40.2722 -77.1914 183° South 410 472 13,000  Level New York Center
01:31PM 40.0500 -77.2000 190° South 404 465 13,100  Climbing Potomac TRACON
01:32PM 39.9333 -77.2167 186° South 399 459 13,000  Descending Potomac TRACON
01:33PM 39.8333 -77.2167 180° South 371 427 13,100 -600 Climbing Potomac TRACON
01:34PM 39.7333 -77.2167 180° South 352 405 11,800 -1,500 Descending Potomac TRACON
01:35PM 39.6500 -77.2167 180° South 323 372 10,100 -900 Descending Potomac TRACON
01:36PM 39.6167 -77.3000 243° Southwest 304 350 10,000 -300 Descending Potomac TRACON
01:37PM 39.5500 -77.3667 218° Southwest 314 361 9,500 -1,080 Descending Potomac TRACON
01:38PM 39.4667 -77.3667 180° South 319 367 7,800 -1,500 Descending Potomac TRACON
01:39PM 39.3833 -77.3667 180° South 302 348 6,500 -1,200 Descending Potomac TRACON
01:40PM 39.3000 -77.3667 180° South 293 337 5,400 -720 Descending Potomac TRACON
01:41PM 39.2000 -77.3667 180° South 279 321 5,000 -240 Descending Potomac TRACON
01:42PM 39.1333 -77.3667 180° South 279 321 5,000 -540 Level Potomac TRACON
01:43PM 39.0500 -77.3500 171° South 276 318 4,000 -480 Descending Potomac TRACON
01:44PM 38.9667 -77.3500 180° South 280 322 4,000  Level Potomac TRACON
01:45PM 38.9000 -77.3500 180° South 242 278 4,000  Level Potomac TRACON
01:46PM 38.8333 -77.3667 191° South 212 244 4,000 -420 Level Potomac TRACON
01:47PM 38.8000 -77.4000 218° Southwest 211 243 3,200 -840 Descending Potomac TRACON
01:48PM 38.8333 -77.4333 322° Northwest 161 185 2,300 -960 Descending Potomac TRACON
01:49PM 38.8667 -77.4333 360° North 137 158 1,400 -900 Descending Potomac TRACON
01:50PM 38.9000 -77.4333 360° North 117 135 700 -720 Descending Potomac TRACON
01:52PM 38.9333 -77.4500 349° North  Level FlightAware Approximate
01:59PM 38.9474 -77.4599 349° North  Level Estimated
02:00PM 38.9474 -77.4599 349° North  Level Estimated